sensor_id;sensor_type;location;lat;lon;timestamp;P1;durP1;ratioP1;P2;durP2;ratioP2
77109;SDS011;66062;52.464;16.922;2023-02-24T00:01:33;63.35;;;28.45;;
77109;SDS011;66062;52.464;16.922;2023-02-24T00:04:02;65.80;;;30.83;;
77109;SDS011;66062;52.464;16.922;2023-02-24T00:06:32;63.33;;;30.00;;
77109;SDS011;66062;52.464;16.922;2023-02-24T00:09:07;63.60;;;31.15;;
77109;SDS011;66062;52.464;16.922;2023-02-24T00:12:21;65.57;;;27.05;;
77109;SDS011;66062;52.464;16.922;2023-02-24T00:14:31;55.10;;;27.08;;
77109;SDS011;66062;52.464;16.922;2023-02-24T00:16:58;57.45;;;26.25;;
77109;SDS011;66062;52.464;16.922;2023-02-24T00:19:25;55.15;;;23.85;;
77109;SDS011;66062;52.464;16.922;2023-02-24T00:21:51;50.53;;;25.08;;
77109;SDS011;66062;52.464;16.922;2023-02-24T00:24:18;52.97;;;24.48;;
77109;SDS011;66062;52.464;16.922;2023-02-24T00:26:45;54.65;;;24.70;;
77109;SDS011;66062;52.464;16.922;2023-02-24T00:29:12;61.40;;;26.85;;
77109;SDS011;66062;52.464;16.922;2023-02-24T00:31:38;47.63;;;24.38;;
77109;SDS011;66062;52.464;16.922;2023-02-24T00:34:06;47.60;;;23.33;;
77109;SDS011;66062;52.464;16.922;2023-02-24T00:36:36;50.63;;;25.85;;
77109;SDS011;66062;52.464;16.922;2023-02-24T00:39:03;46.65;;;22.67;;
77109;SDS011;66062;52.464;16.922;2023-02-24T00:41:36;49.83;;;22.33;;
77109;SDS011;66062;52.464;16.922;2023-02-24T00:44:05;53.70;;;23.77;;
77109;SDS011;66062;52.464;16.922;2023-02-24T00:46:34;48.40;;;24.52;;
77109;SDS011;66062;52.464;16.922;2023-02-24T00:49:03;48.17;;;23.25;;
77109;SDS011;66062;52.464;16.922;2023-02-24T00:51:34;45.72;;;22.38;;
77109;SDS011;66062;52.464;16.922;2023-02-24T00:54:01;52.13;;;22.58;;
77109;SDS011;66062;52.464;16.922;2023-02-24T00:56:27;48.20;;;22.92;;
77109;SDS011;66062;52.464;16.922;2023-02-24T00:58:54;49.65;;;22.75;;
77109;SDS011;66062;52.464;16.922;2023-02-24T01:01:22;49.30;;;22.58;;
77109;SDS011;66062;52.464;16.922;2023-02-24T01:03:50;42.47;;;21.63;;
77109;SDS011;66062;52.464;16.922;2023-02-24T01:06:19;47.10;;;25.05;;
77109;SDS011;66062;52.464;16.922;2023-02-24T01:08:48;46.85;;;23.08;;
77109;SDS011;66062;52.464;16.922;2023-02-24T01:13:59;43.28;;;21.00;;
77109;SDS011;66062;52.464;16.922;2023-02-24T01:16:27;40.10;;;20.17;;
77109;SDS011;66062;52.464;16.922;2023-02-24T01:18:53;42.92;;;22.60;;
77109;SDS011;66062;52.464;16.922;2023-02-24T01:21:18;41.30;;;20.38;;
77109;SDS011;66062;52.464;16.922;2023-02-24T01:23:48;45.78;;;20.83;;
77109;SDS011;66062;52.464;16.922;2023-02-24T01:26:14;49.92;;;22.40;;
77109;SDS011;66062;52.464;16.922;2023-02-24T01:28:41;47.42;;;20.98;;
77109;SDS011;66062;52.464;16.922;2023-02-24T01:31:06;41.67;;;20.38;;
77109;SDS011;66062;52.464;16.922;2023-02-24T01:33:32;42.03;;;19.05;;
77109;SDS011;66062;52.464;16.922;2023-02-24T01:36:08;44.58;;;20.40;;
77109;SDS011;66062;52.464;16.922;2023-02-24T01:38:35;42.30;;;20.30;;
77109;SDS011;66062;52.464;16.922;2023-02-24T01:41:01;41.33;;;21.63;;
77109;SDS011;66062;52.464;16.922;2023-02-24T01:43:29;43.90;;;19.88;;
77109;SDS011;66062;52.464;16.922;2023-02-24T01:45:55;39.58;;;19.60;;
77109;SDS011;66062;52.464;16.922;2023-02-24T01:48:21;40.70;;;18.42;;
77109;SDS011;66062;52.464;16.922;2023-02-24T01:50:48;41.25;;;19.88;;
77109;SDS011;66062;52.464;16.922;2023-02-24T01:53:15;42.38;;;20.73;;
77109;SDS011;66062;52.464;16.922;2023-02-24T01:55:41;45.03;;;19.05;;
77109;SDS011;66062;52.464;16.922;2023-02-24T01:58:29;38.47;;;19.23;;
77109;SDS011;66062;52.464;16.922;2023-02-24T02:00:56;42.33;;;19.38;;
77109;SDS011;66062;52.464;16.922;2023-02-24T02:05:59;43.30;;;19.23;;
77109;SDS011;66062;52.464;16.922;2023-02-24T02:08:33;39.97;;;17.95;;
77109;SDS011;66062;52.464;16.922;2023-02-24T02:11:02;44.60;;;18.55;;
77109;SDS011;66062;52.464;16.922;2023-02-24T02:13:31;45.60;;;20.48;;
77109;SDS011;66062;52.464;16.922;2023-02-24T02:18:49;41.78;;;18.65;;
77109;SDS011;66062;52.464;16.922;2023-02-24T02:27:12;44.05;;;18.42;;
77109;SDS011;66062;52.464;16.922;2023-02-24T02:35:00;41.22;;;16.17;;
77109;SDS011;66062;52.464;16.922;2023-02-24T02:48:20;36.65;;;15.07;;
77109;SDS011;66062;52.464;16.922;2023-02-24T02:51:08;38.28;;;16.48;;
77109;SDS011;66062;52.464;16.922;2023-02-24T02:56:19;40.40;;;16.77;;
77109;SDS011;66062;52.464;16.922;2023-02-24T02:58:50;39.70;;;15.50;;
77109;SDS011;66062;52.464;16.922;2023-02-24T03:01:18;37.13;;;15.65;;
77109;SDS011;66062;52.464;16.922;2023-02-24T03:03:50;39.55;;;15.65;;
77109;SDS011;66062;52.464;16.922;2023-02-24T03:06:26;37.15;;;15.63;;
77109;SDS011;66062;52.464;16.922;2023-02-24T03:11:26;38.55;;;16.40;;
77109;SDS011;66062;52.464;16.922;2023-02-24T03:13:53;36.95;;;16.23;;
77109;SDS011;66062;52.464;16.922;2023-02-24T03:16:21;38.15;;;16.67;;
77109;SDS011;66062;52.464;16.922;2023-02-24T03:18:50;40.80;;;15.90;;
77109;SDS011;66062;52.464;16.922;2023-02-24T03:21:38;38.17;;;15.32;;
77109;SDS011;66062;52.464;16.922;2023-02-24T03:24:09;36.00;;;14.43;;
77109;SDS011;66062;52.464;16.922;2023-02-24T03:31:59;35.42;;;14.07;;
77109;SDS011;66062;52.464;16.922;2023-02-24T03:34:39;35.58;;;15.05;;
77109;SDS011;66062;52.464;16.922;2023-02-24T03:37:07;33.70;;;14.23;;
77109;SDS011;66062;52.464;16.922;2023-02-24T03:39:32;35.88;;;14.55;;
77109;SDS011;66062;52.464;16.922;2023-02-24T03:42:05;36.67;;;14.45;;
77109;SDS011;66062;52.464;16.922;2023-02-24T03:44:36;30.05;;;12.65;;
77109;SDS011;66062;52.464;16.922;2023-02-24T03:47:01;38.65;;;15.23;;
77109;SDS011;66062;52.464;16.922;2023-02-24T03:49:27;38.97;;;14.65;;
77109;SDS011;66062;52.464;16.922;2023-02-24T03:51:58;34.47;;;14.23;;
77109;SDS011;66062;52.464;16.922;2023-02-24T03:57:54;36.53;;;15.02;;
77109;SDS011;66062;52.464;16.922;2023-02-24T04:00:20;37.85;;;13.95;;
77109;SDS011;66062;52.464;16.922;2023-02-24T04:08:31;34.42;;;14.25;;
77109;SDS011;66062;52.464;16.922;2023-02-24T04:11:11;37.50;;;15.13;;
77109;SDS011;66062;52.464;16.922;2023-02-24T04:13:48;36.72;;;15.10;;
77109;SDS011;66062;52.464;16.922;2023-02-24T04:16:20;42.13;;;15.00;;
77109;SDS011;66062;52.464;16.922;2023-02-24T04:18:57;47.03;;;14.98;;
77109;SDS011;66062;52.464;16.922;2023-02-24T04:21:27;40.13;;;14.32;;
77109;SDS011;66062;52.464;16.922;2023-02-24T04:23:56;39.30;;;15.13;;
77109;SDS011;66062;52.464;16.922;2023-02-24T04:26:25;42.33;;;15.32;;
77109;SDS011;66062;52.464;16.922;2023-02-24T04:28:53;41.38;;;14.93;;
77109;SDS011;66062;52.464;16.922;2023-02-24T04:31:20;35.15;;;14.60;;
77109;SDS011;66062;52.464;16.922;2023-02-24T04:33:48;39.17;;;14.60;;
77109;SDS011;66062;52.464;16.922;2023-02-24T04:36:18;39.63;;;14.73;;
77109;SDS011;66062;52.464;16.922;2023-02-24T04:38:45;38.72;;;15.00;;
77109;SDS011;66062;52.464;16.922;2023-02-24T04:41:17;38.85;;;14.65;;
77109;SDS011;66062;52.464;16.922;2023-02-24T04:43:48;36.65;;;14.13;;
77109;SDS011;66062;52.464;16.922;2023-02-24T04:46:17;45.60;;;16.35;;
77109;SDS011;66062;52.464;16.922;2023-02-24T04:48:43;46.60;;;14.20;;
77109;SDS011;66062;52.464;16.922;2023-02-24T04:51:09;36.72;;;13.75;;
77109;SDS011;66062;52.464;16.922;2023-02-24T04:53:34;37.63;;;13.77;;
77109;SDS011;66062;52.464;16.922;2023-02-24T04:56:02;39.92;;;13.93;;
77109;SDS011;66062;52.464;16.922;2023-02-24T04:58:33;47.13;;;13.73;;
77109;SDS011;66062;52.464;16.922;2023-02-24T05:01:05;41.80;;;14.65;;
77109;SDS011;66062;52.464;16.922;2023-02-24T05:03:34;45.03;;;13.80;;
77109;SDS011;66062;52.464;16.922;2023-02-24T05:06:00;42.78;;;14.70;;
77109;SDS011;66062;52.464;16.922;2023-02-24T05:08:26;45.78;;;17.20;;
77109;SDS011;66062;52.464;16.922;2023-02-24T05:10:52;39.40;;;14.10;;
77109;SDS011;66062;52.464;16.922;2023-02-24T05:13:20;38.88;;;14.02;;
77109;SDS011;66062;52.464;16.922;2023-02-24T05:15:52;44.00;;;14.57;;
77109;SDS011;66062;52.464;16.922;2023-02-24T05:18:22;38.72;;;13.13;;
77109;SDS011;66062;52.464;16.922;2023-02-24T05:20:49;44.45;;;15.45;;
77109;SDS011;66062;52.464;16.922;2023-02-24T05:23:38;38.17;;;13.82;;
77109;SDS011;66062;52.464;16.922;2023-02-24T05:26:08;45.42;;;15.30;;
77109;SDS011;66062;52.464;16.922;2023-02-24T05:28:35;48.55;;;14.98;;
77109;SDS011;66062;52.464;16.922;2023-02-24T05:33:33;48.13;;;13.40;;
77109;SDS011;66062;52.464;16.922;2023-02-24T05:36:02;41.40;;;13.30;;
77109;SDS011;66062;52.464;16.922;2023-02-24T05:38:30;37.45;;;12.38;;
77109;SDS011;66062;52.464;16.922;2023-02-24T05:41:02;40.65;;;14.38;;
77109;SDS011;66062;52.464;16.922;2023-02-24T05:43:29;36.00;;;12.75;;
77109;SDS011;66062;52.464;16.922;2023-02-24T05:45:58;42.05;;;12.80;;
77109;SDS011;66062;52.464;16.922;2023-02-24T05:48:27;34.70;;;12.15;;
77109;SDS011;66062;52.464;16.922;2023-02-24T05:50:52;34.83;;;11.50;;
77109;SDS011;66062;52.464;16.922;2023-02-24T05:53:19;35.20;;;11.82;;
77109;SDS011;66062;52.464;16.922;2023-02-24T05:55:47;35.85;;;12.60;;
77109;SDS011;66062;52.464;16.922;2023-02-24T05:58:13;43.72;;;12.07;;
77109;SDS011;66062;52.464;16.922;2023-02-24T06:00:40;35.47;;;12.07;;
77109;SDS011;66062;52.464;16.922;2023-02-24T06:03:09;35.15;;;11.65;;
77109;SDS011;66062;52.464;16.922;2023-02-24T06:05:41;40.25;;;12.27;;
77109;SDS011;66062;52.464;16.922;2023-02-24T06:08:16;38.72;;;12.05;;
77109;SDS011;66062;52.464;16.922;2023-02-24T06:10:42;32.97;;;12.23;;
77109;SDS011;66062;52.464;16.922;2023-02-24T06:13:11;32.35;;;10.88;;
77109;SDS011;66062;52.464;16.922;2023-02-24T06:15:36;32.55;;;10.40;;
77109;SDS011;66062;52.464;16.922;2023-02-24T06:18:01;33.50;;;9.93;;
77109;SDS011;66062;52.464;16.922;2023-02-24T06:20:28;24.50;;;9.60;;
77109;SDS011;66062;52.464;16.922;2023-02-24T06:22:57;28.90;;;9.32;;
77109;SDS011;66062;52.464;16.922;2023-02-24T06:25:23;34.80;;;10.05;;
77109;SDS011;66062;52.464;16.922;2023-02-24T06:27:51;28.30;;;9.15;;
77109;SDS011;66062;52.464;16.922;2023-02-24T06:30:18;30.65;;;10.25;;
77109;SDS011;66062;52.464;16.922;2023-02-24T06:32:46;32.03;;;10.07;;
77109;SDS011;66062;52.464;16.922;2023-02-24T06:35:12;33.97;;;9.82;;
77109;SDS011;66062;52.464;16.922;2023-02-24T06:37:37;30.23;;;10.05;;
77109;SDS011;66062;52.464;16.922;2023-02-24T06:40:04;31.98;;;8.90;;
77109;SDS011;66062;52.464;16.922;2023-02-24T06:42:49;20.58;;;6.80;;
77109;SDS011;66062;52.464;16.922;2023-02-24T06:45:19;9.55;;;4.55;;
77109;SDS011;66062;52.464;16.922;2023-02-24T06:47:45;15.27;;;4.57;;
77109;SDS011;66062;52.464;16.922;2023-02-24T06:50:13;9.75;;;4.50;;
77109;SDS011;66062;52.464;16.922;2023-02-24T06:52:39;12.10;;;3.83;;
77109;SDS011;66062;52.464;16.922;2023-02-24T06:57:49;8.20;;;3.00;;
77109;SDS011;66062;52.464;16.922;2023-02-24T07:00:17;4.60;;;2.10;;
77109;SDS011;66062;52.464;16.922;2023-02-24T07:02:49;10.20;;;3.60;;
77109;SDS011;66062;52.464;16.922;2023-02-24T07:05:14;9.63;;;3.83;;
77109;SDS011;66062;52.464;16.922;2023-02-24T07:07:41;7.07;;;3.58;;
77109;SDS011;66062;52.464;16.922;2023-02-24T07:10:10;7.50;;;2.78;;
77109;SDS011;66062;52.464;16.922;2023-02-24T07:12:37;8.27;;;3.08;;
77109;SDS011;66062;52.464;16.922;2023-02-24T07:15:03;8.30;;;3.35;;
77109;SDS011;66062;52.464;16.922;2023-02-24T07:17:29;7.45;;;2.85;;
77109;SDS011;66062;52.464;16.922;2023-02-24T07:19:54;6.22;;;3.35;;
77109;SDS011;66062;52.464;16.922;2023-02-24T07:22:21;8.05;;;2.78;;
77109;SDS011;66062;52.464;16.922;2023-02-24T07:24:49;10.38;;;2.72;;
77109;SDS011;66062;52.464;16.922;2023-02-24T07:27:15;9.57;;;2.95;;
77109;SDS011;66062;52.464;16.922;2023-02-24T07:29:47;6.57;;;2.35;;
77109;SDS011;66062;52.464;16.922;2023-02-24T07:32:14;8.27;;;2.38;;
77109;SDS011;66062;52.464;16.922;2023-02-24T07:34:41;5.53;;;2.70;;
77109;SDS011;66062;52.464;16.922;2023-02-24T07:37:08;9.65;;;2.80;;
77109;SDS011;66062;52.464;16.922;2023-02-24T07:39:35;8.20;;;3.35;;
77109;SDS011;66062;52.464;16.922;2023-02-24T07:42:01;15.43;;;3.78;;
77109;SDS011;66062;52.464;16.922;2023-02-24T07:44:27;10.52;;;3.85;;
77109;SDS011;66062;52.464;16.922;2023-02-24T07:46:54;9.18;;;3.25;;
77109;SDS011;66062;52.464;16.922;2023-02-24T07:49:23;9.68;;;3.78;;
77109;SDS011;66062;52.464;16.922;2023-02-24T07:51:50;12.55;;;4.93;;
77109;SDS011;66062;52.464;16.922;2023-02-24T07:54:17;8.48;;;4.63;;
77109;SDS011;66062;52.464;16.922;2023-02-24T07:56:46;10.02;;;4.28;;
77109;SDS011;66062;52.464;16.922;2023-02-24T07:59:20;10.32;;;2.70;;
77109;SDS011;66062;52.464;16.922;2023-02-24T08:01:46;7.00;;;3.67;;
77109;SDS011;66062;52.464;16.922;2023-02-24T08:04:18;10.27;;;3.42;;
77109;SDS011;66062;52.464;16.922;2023-02-24T08:06:47;11.10;;;3.70;;
77109;SDS011;66062;52.464;16.922;2023-02-24T08:09:19;15.02;;;4.45;;
77109;SDS011;66062;52.464;16.922;2023-02-24T08:12:08;9.48;;;4.15;;
77109;SDS011;66062;52.464;16.922;2023-02-24T08:14:41;15.10;;;4.38;;
77109;SDS011;66062;52.464;16.922;2023-02-24T08:17:14;12.73;;;4.65;;
77109;SDS011;66062;52.464;16.922;2023-02-24T08:19:44;10.73;;;3.20;;
77109;SDS011;66062;52.464;16.922;2023-02-24T08:22:11;8.60;;;2.75;;
77109;SDS011;66062;52.464;16.922;2023-02-24T08:24:52;15.23;;;3.45;;
77109;SDS011;66062;52.464;16.922;2023-02-24T08:27:24;5.93;;;1.65;;
77109;SDS011;66062;52.464;16.922;2023-02-24T08:29:54;8.60;;;1.95;;
77109;SDS011;66062;52.464;16.922;2023-02-24T08:32:33;7.80;;;2.13;;
77109;SDS011;66062;52.464;16.922;2023-02-24T08:35:17;4.88;;;1.42;;
77109;SDS011;66062;52.464;16.922;2023-02-24T08:37:54;8.60;;;2.13;;
77109;SDS011;66062;52.464;16.922;2023-02-24T08:40:28;13.63;;;1.95;;
77109;SDS011;66062;52.464;16.922;2023-02-24T08:43:18;14.27;;;3.45;;
77109;SDS011;66062;52.464;16.922;2023-02-24T08:45:50;15.30;;;2.75;;
77109;SDS011;66062;52.464;16.922;2023-02-24T08:48:21;12.85;;;2.08;;
77109;SDS011;66062;52.464;16.922;2023-02-24T08:51:12;10.93;;;2.42;;
77109;SDS011;66062;52.464;16.922;2023-02-24T08:53:39;19.05;;;3.13;;
77109;SDS011;66062;52.464;16.922;2023-02-24T08:56:06;12.43;;;2.65;;
77109;SDS011;66062;52.464;16.922;2023-02-24T08:58:44;13.55;;;2.95;;
77109;SDS011;66062;52.464;16.922;2023-02-24T09:01:19;15.45;;;3.08;;
77109;SDS011;66062;52.464;16.922;2023-02-24T09:03:50;16.92;;;2.22;;
77109;SDS011;66062;52.464;16.922;2023-02-24T09:06:19;11.07;;;3.13;;
77109;SDS011;66062;52.464;16.922;2023-02-24T09:08:53;12.50;;;2.53;;
77109;SDS011;66062;52.464;16.922;2023-02-24T09:11:40;18.85;;;2.95;;
77109;SDS011;66062;52.464;16.922;2023-02-24T09:14:12;11.05;;;2.08;;
77109;SDS011;66062;52.464;16.922;2023-02-24T09:16:41;16.08;;;2.35;;
77109;SDS011;66062;52.464;16.922;2023-02-24T09:19:26;9.45;;;2.45;;
77109;SDS011;66062;52.464;16.922;2023-02-24T09:22:10;10.73;;;2.28;;
77109;SDS011;66062;52.464;16.922;2023-02-24T09:24:39;10.35;;;2.20;;
77109;SDS011;66062;52.464;16.922;2023-02-24T09:27:06;12.30;;;2.25;;
77109;SDS011;66062;52.464;16.922;2023-02-24T09:29:31;7.70;;;1.95;;
77109;SDS011;66062;52.464;16.922;2023-02-24T09:32:13;9.80;;;1.50;;
77109;SDS011;66062;52.464;16.922;2023-02-24T09:34:40;16.17;;;1.70;;
77109;SDS011;66062;52.464;16.922;2023-02-24T09:37:10;13.55;;;1.60;;
77109;SDS011;66062;52.464;16.922;2023-02-24T09:39:49;15.73;;;1.98;;
77109;SDS011;66062;52.464;16.922;2023-02-24T09:42:23;5.78;;;0.90;;
77109;SDS011;66062;52.464;16.922;2023-02-24T09:44:56;5.00;;;1.00;;
77109;SDS011;66062;52.464;16.922;2023-02-24T09:47:42;9.80;;;1.25;;
77109;SDS011;66062;52.464;16.922;2023-02-24T09:52:44;12.55;;;1.90;;
77109;SDS011;66062;52.464;16.922;2023-02-24T09:55:19;9.40;;;1.77;;
77109;SDS011;66062;52.464;16.922;2023-02-24T10:04:38;9.80;;;1.48;;
77109;SDS011;66062;52.464;16.922;2023-02-24T10:11:59;6.18;;;1.38;;
77109;SDS011;66062;52.464;16.922;2023-02-24T10:14:34;8.38;;;1.58;;
77109;SDS011;66062;52.464;16.922;2023-02-24T10:17:36;3.72;;;1.23;;
77109;SDS011;66062;52.464;16.922;2023-02-24T10:22:57;12.15;;;1.80;;
77109;SDS011;66062;52.464;16.922;2023-02-24T10:30:55;5.82;;;1.30;;
77109;SDS011;66062;52.464;16.922;2023-02-24T10:33:53;9.38;;;1.20;;
77109;SDS011;66062;52.464;16.922;2023-02-24T10:36:30;9.38;;;1.85;;
77109;SDS011;66062;52.464;16.922;2023-02-24T10:39:08;8.73;;;2.92;;
77109;SDS011;66062;52.464;16.922;2023-02-24T10:41:59;9.35;;;2.65;;
77109;SDS011;66062;52.464;16.922;2023-02-24T10:44:47;10.73;;;1.67;;
77109;SDS011;66062;52.464;16.922;2023-02-24T10:49:55;9.43;;;1.55;;
77109;SDS011;66062;52.464;16.922;2023-02-24T10:55:02;7.53;;;2.08;;
77109;SDS011;66062;52.464;16.922;2023-02-24T10:57:40;8.85;;;1.25;;
77109;SDS011;66062;52.464;16.922;2023-02-24T11:00:17;7.35;;;1.90;;
77109;SDS011;66062;52.464;16.922;2023-02-24T11:02:55;8.95;;;2.42;;
77109;SDS011;66062;52.464;16.922;2023-02-24T11:05:33;6.22;;;1.45;;
77109;SDS011;66062;52.464;16.922;2023-02-24T11:10:59;6.50;;;1.60;;
77109;SDS011;66062;52.464;16.922;2023-02-24T11:13:31;12.07;;;2.22;;
77109;SDS011;66062;52.464;16.922;2023-02-24T11:16:15;7.50;;;1.40;;
77109;SDS011;66062;52.464;16.922;2023-02-24T11:19:15;6.68;;;1.23;;
77109;SDS011;66062;52.464;16.922;2023-02-24T11:21:41;5.85;;;1.30;;
77109;SDS011;66062;52.464;16.922;2023-02-24T11:24:07;9.90;;;1.73;;
77109;SDS011;66062;52.464;16.922;2023-02-24T11:26:42;8.00;;;1.42;;
77109;SDS011;66062;52.464;16.922;2023-02-24T11:31:51;13.82;;;2.10;;
77109;SDS011;66062;52.464;16.922;2023-02-24T11:39:46;9.60;;;1.65;;
77109;SDS011;66062;52.464;16.922;2023-02-24T11:42:22;6.68;;;2.53;;
77109;SDS011;66062;52.464;16.922;2023-02-24T11:45:18;5.60;;;1.90;;
77109;SDS011;66062;52.464;16.922;2023-02-24T11:47:52;6.43;;;2.08;;
77109;SDS011;66062;52.464;16.922;2023-02-24T11:52:54;6.97;;;2.30;;
77109;SDS011;66062;52.464;16.922;2023-02-24T11:57:51;10.53;;;2.73;;
77109;SDS011;66062;52.464;16.922;2023-02-24T12:00:24;7.35;;;2.45;;
77109;SDS011;66062;52.464;16.922;2023-02-24T12:02:59;10.02;;;2.53;;
77109;SDS011;66062;52.464;16.922;2023-02-24T12:05:48;11.38;;;2.60;;
77109;SDS011;66062;52.464;16.922;2023-02-24T12:10:59;5.60;;;2.58;;
77109;SDS011;66062;52.464;16.922;2023-02-24T12:13:37;11.25;;;2.67;;
77109;SDS011;66062;52.464;16.922;2023-02-24T12:16:14;6.57;;;1.73;;
77109;SDS011;66062;52.464;16.922;2023-02-24T12:18:54;6.93;;;2.00;;
77109;SDS011;66062;52.464;16.922;2023-02-24T12:21:28;10.27;;;3.03;;
77109;SDS011;66062;52.464;16.922;2023-02-24T12:23:59;7.40;;;1.85;;
77109;SDS011;66062;52.464;16.922;2023-02-24T12:26:37;8.85;;;2.05;;
77109;SDS011;66062;52.464;16.922;2023-02-24T12:29:28;8.20;;;1.83;;
77109;SDS011;66062;52.464;16.922;2023-02-24T12:32:00;5.68;;;1.55;;
77109;SDS011;66062;52.464;16.922;2023-02-24T12:34:43;4.38;;;1.27;;
77109;SDS011;66062;52.464;16.922;2023-02-24T12:42:28;8.75;;;1.83;;
77109;SDS011;66062;52.464;16.922;2023-02-24T12:53:22;4.18;;;1.40;;
77109;SDS011;66062;52.464;16.922;2023-02-24T12:56:20;6.50;;;1.55;;
77109;SDS011;66062;52.464;16.922;2023-02-24T12:58:50;5.20;;;1.73;;
77109;SDS011;66062;52.464;16.922;2023-02-24T13:01:30;9.18;;;1.30;;
77109;SDS011;66062;52.464;16.922;2023-02-24T13:09:58;2.85;;;1.00;;
77109;SDS011;66062;52.464;16.922;2023-02-24T13:15:22;7.55;;;1.92;;
77109;SDS011;66062;52.464;16.922;2023-02-24T13:17:50;6.47;;;1.50;;
77109;SDS011;66062;52.464;16.922;2023-02-24T13:20:25;7.60;;;2.00;;
77109;SDS011;66062;52.464;16.922;2023-02-24T13:22:51;4.82;;;1.23;;
77109;SDS011;66062;52.464;16.922;2023-02-24T13:25:20;4.68;;;1.95;;
77109;SDS011;66062;52.464;16.922;2023-02-24T13:28:20;7.18;;;1.60;;
77109;SDS011;66062;52.464;16.922;2023-02-24T13:30:59;5.07;;;1.10;;
77109;SDS011;66062;52.464;16.922;2023-02-24T13:33:29;5.50;;;1.35;;
77109;SDS011;66062;52.464;16.922;2023-02-24T13:36:13;6.07;;;1.40;;
77109;SDS011;66062;52.464;16.922;2023-02-24T13:38:46;6.35;;;1.42;;
77109;SDS011;66062;52.464;16.922;2023-02-24T13:43:55;8.43;;;1.35;;
77109;SDS011;66062;52.464;16.922;2023-02-24T13:47:09;2.72;;;0.82;;
77109;SDS011;66062;52.464;16.922;2023-02-24T13:49:55;10.63;;;1.02;;
77109;SDS011;66062;52.464;16.922;2023-02-24T13:55:39;5.57;;;0.95;;
77109;SDS011;66062;52.464;16.922;2023-02-24T13:58:18;5.78;;;1.73;;
77109;SDS011;66062;52.464;16.922;2023-02-24T14:01:13;7.43;;;1.50;;
77109;SDS011;66062;52.464;16.922;2023-02-24T14:03:42;6.95;;;1.50;;
77109;SDS011;66062;52.464;16.922;2023-02-24T14:06:19;6.70;;;1.20;;
77109;SDS011;66062;52.464;16.922;2023-02-24T14:08:50;4.85;;;1.73;;
77109;SDS011;66062;52.464;16.922;2023-02-24T14:11:21;4.40;;;1.00;;
77109;SDS011;66062;52.464;16.922;2023-02-24T14:13:51;5.88;;;1.58;;
77109;SDS011;66062;52.464;16.922;2023-02-24T14:16:24;5.00;;;1.42;;
77109;SDS011;66062;52.464;16.922;2023-02-24T14:18:53;5.55;;;1.23;;
77109;SDS011;66062;52.464;16.922;2023-02-24T14:21:22;5.15;;;1.98;;
77109;SDS011;66062;52.464;16.922;2023-02-24T14:24:10;4.47;;;2.13;;
77109;SDS011;66062;52.464;16.922;2023-02-24T14:29:28;9.82;;;2.13;;
77109;SDS011;66062;52.464;16.922;2023-02-24T14:31:55;3.97;;;1.90;;
77109;SDS011;66062;52.464;16.922;2023-02-24T14:34:23;4.30;;;1.50;;
77109;SDS011;66062;52.464;16.922;2023-02-24T14:36:52;8.38;;;1.85;;
77109;SDS011;66062;52.464;16.922;2023-02-24T14:39:27;8.50;;;2.20;;
77109;SDS011;66062;52.464;16.922;2023-02-24T14:44:31;6.05;;;1.83;;
77109;SDS011;66062;52.464;16.922;2023-02-24T14:46:59;7.93;;;2.50;;
77109;SDS011;66062;52.464;16.922;2023-02-24T14:49:29;8.13;;;1.92;;
77109;SDS011;66062;52.464;16.922;2023-02-24T14:55:15;10.27;;;2.17;;
77109;SDS011;66062;52.464;16.922;2023-02-24T14:58:05;4.40;;;1.42;;
77109;SDS011;66062;52.464;16.922;2023-02-24T15:00:33;4.65;;;1.30;;
77109;SDS011;66062;52.464;16.922;2023-02-24T15:03:16;6.18;;;1.90;;
77109;SDS011;66062;52.464;16.922;2023-02-24T15:05:47;5.78;;;1.30;;
77109;SDS011;66062;52.464;16.922;2023-02-24T15:08:28;8.18;;;2.05;;
77109;SDS011;66062;52.464;16.922;2023-02-24T15:10:59;6.20;;;1.90;;
77109;SDS011;66062;52.464;16.922;2023-02-24T15:16:43;13.43;;;2.33;;
77109;SDS011;66062;52.464;16.922;2023-02-24T15:19:22;5.90;;;2.53;;
77109;SDS011;66062;52.464;16.922;2023-02-24T15:21:51;6.97;;;2.55;;
77109;SDS011;66062;52.464;16.922;2023-02-24T15:24:18;6.35;;;1.60;;
77109;SDS011;66062;52.464;16.922;2023-02-24T15:26:52;4.97;;;1.95;;
77109;SDS011;66062;52.464;16.922;2023-02-24T15:29:20;5.20;;;2.67;;
77109;SDS011;66062;52.464;16.922;2023-02-24T15:31:49;8.23;;;2.00;;
77109;SDS011;66062;52.464;16.922;2023-02-24T15:34:16;9.38;;;3.20;;
77109;SDS011;66062;52.464;16.922;2023-02-24T15:36:44;8.32;;;2.05;;
77109;SDS011;66062;52.464;16.922;2023-02-24T15:39:16;8.77;;;2.53;;
77109;SDS011;66062;52.464;16.922;2023-02-24T15:41:47;8.43;;;2.25;;
77109;SDS011;66062;52.464;16.922;2023-02-24T15:44:23;7.90;;;2.15;;
77109;SDS011;66062;52.464;16.922;2023-02-24T15:46:51;7.05;;;2.60;;
77109;SDS011;66062;52.464;16.922;2023-02-24T15:49:17;9.10;;;3.28;;
77109;SDS011;66062;52.464;16.922;2023-02-24T15:51:42;9.35;;;2.63;;
77109;SDS011;66062;52.464;16.922;2023-02-24T15:54:11;8.88;;;3.38;;
77109;SDS011;66062;52.464;16.922;2023-02-24T15:56:48;8.10;;;2.38;;
77109;SDS011;66062;52.464;16.922;2023-02-24T15:59:15;6.55;;;2.03;;
77109;SDS011;66062;52.464;16.922;2023-02-24T16:01:42;12.88;;;2.83;;
77109;SDS011;66062;52.464;16.922;2023-02-24T16:04:07;11.15;;;2.55;;
77109;SDS011;66062;52.464;16.922;2023-02-24T16:06:36;10.55;;;2.30;;
77109;SDS011;66062;52.464;16.922;2023-02-24T16:09:12;9.98;;;2.58;;
77109;SDS011;66062;52.464;16.922;2023-02-24T16:11:40;8.52;;;2.28;;
77109;SDS011;66062;52.464;16.922;2023-02-24T16:14:11;12.75;;;3.17;;
77109;SDS011;66062;52.464;16.922;2023-02-24T16:16:39;9.50;;;3.67;;
77109;SDS011;66062;52.464;16.922;2023-02-24T16:19:05;11.60;;;4.60;;
77109;SDS011;66062;52.464;16.922;2023-02-24T16:21:31;17.15;;;6.45;;
77109;SDS011;66062;52.464;16.922;2023-02-24T16:23:57;10.73;;;3.45;;
77109;SDS011;66062;52.464;16.922;2023-02-24T16:26:22;16.83;;;4.63;;
77109;SDS011;66062;52.464;16.922;2023-02-24T16:28:54;10.82;;;4.00;;
77109;SDS011;66062;52.464;16.922;2023-02-24T16:31:21;9.95;;;4.07;;
77109;SDS011;66062;52.464;16.922;2023-02-24T16:33:48;9.35;;;3.40;;
77109;SDS011;66062;52.464;16.922;2023-02-24T16:36:16;8.25;;;3.47;;
77109;SDS011;66062;52.464;16.922;2023-02-24T16:38:42;14.80;;;3.80;;
77109;SDS011;66062;52.464;16.922;2023-02-24T16:41:09;11.57;;;4.22;;
77109;SDS011;66062;52.464;16.922;2023-02-24T16:43:36;10.85;;;3.97;;
77109;SDS011;66062;52.464;16.922;2023-02-24T16:46:03;12.93;;;4.45;;
77109;SDS011;66062;52.464;16.922;2023-02-24T16:48:32;9.15;;;4.00;;
77109;SDS011;66062;52.464;16.922;2023-02-24T16:51:04;14.82;;;4.50;;
77109;SDS011;66062;52.464;16.922;2023-02-24T16:53:32;15.90;;;5.55;;
77109;SDS011;66062;52.464;16.922;2023-02-24T16:55:58;9.27;;;4.03;;
77109;SDS011;66062;52.464;16.922;2023-02-24T16:58:25;14.45;;;4.28;;
77109;SDS011;66062;52.464;16.922;2023-02-24T17:00:52;10.73;;;4.20;;
77109;SDS011;66062;52.464;16.922;2023-02-24T17:03:27;13.52;;;4.68;;
77109;SDS011;66062;52.464;16.922;2023-02-24T17:06:06;10.77;;;4.40;;
77109;SDS011;66062;52.464;16.922;2023-02-24T17:08:31;9.88;;;4.60;;